KMM308 LMML-EDDM
Flight info
| Callsign | KMM308 |
|---|---|
| Flight time | N/A |
| Altitude | 36000 |
| Route | GZO M622 SOPIR DCT MABOX DCT ADEXI DCT SUKOM DCT LUMAV DCT ALBET DCT VADIK DCT DIKEM DCT SUMIR DCT NAXAV DCT SOTOV/N0401F240 T101 BETOS BETOS1B |
| Aircraft | A320/M-SDE3FGHIRWY/LB1 |
Departure
| Time | N/A |
|---|---|
| Airport | Malta International Airport (LMML) |
Arrival
| Time | 2026-05-07 16:11 |
|---|---|
| Airport | Munich Airport (EDDM) |
| Time | Latitude | Longitude | Altitude | Speed | Heading |
|---|---|---|---|---|---|
| 2026-05-07 15:28 | 45.82388 | 11.45860 | 34004 ft | 449 kts | 347° |
| 2026-05-07 15:28 | 45.85532 | 11.45409 | 34007 ft | 449 kts | 347° |
| 2026-05-07 15:29 | 45.91715 | 11.44508 | 33998 ft | 448 kts | 347° |
| 2026-05-07 15:29 | 45.97927 | 11.43588 | 34008 ft | 449 kts | 347° |
| 2026-05-07 15:30 | 46.04144 | 11.42681 | 34021 ft | 449 kts | 348° |
| 2026-05-07 15:30 | 46.10319 | 11.41795 | 34008 ft | 449 kts | 348° |
| 2026-05-07 15:31 | 46.16539 | 11.40892 | 33999 ft | 449 kts | 348° |
| 2026-05-07 15:31 | 46.22759 | 11.39993 | 33997 ft | 449 kts | 348° |
| 2026-05-07 15:32 | 46.28989 | 11.39084 | 34009 ft | 449 kts | 347° |
| 2026-05-07 15:32 | 46.35217 | 11.38165 | 34005 ft | 449 kts | 348° |
| 2026-05-07 15:33 | 46.41430 | 11.37256 | 33980 ft | 449 kts | 348° |
| 2026-05-07 15:33 | 46.47662 | 11.36345 | 33961 ft | 450 kts | 348° |
| 2026-05-07 15:34 | 46.52834 | 11.35583 | 33954 ft | 450 kts | 348° |
| 2026-05-07 15:34 | 46.60109 | 11.34499 | 33968 ft | 449 kts | 348° |
| 2026-05-07 15:35 | 46.66294 | 11.33577 | 33988 ft | 449 kts | 349° |
| 2026-05-07 15:35 | 46.71506 | 11.32801 | 33991 ft | 449 kts | 348° |
| 2026-05-07 15:36 | 46.77721 | 11.31879 | 33997 ft | 449 kts | 348° |
| 2026-05-07 15:36 | 46.84958 | 11.30809 | 34032 ft | 450 kts | 349° |
| 2026-05-07 15:37 | 46.90136 | 11.30035 | 34014 ft | 450 kts | 349° |
| 2026-05-07 15:37 | 46.97432 | 11.28939 | 34001 ft | 451 kts | 349° |
| 2026-05-07 15:38 | 47.03678 | 11.28000 | 34012 ft | 451 kts | 349° |
| 2026-05-07 15:38 | 47.09925 | 11.27051 | 34002 ft | 452 kts | 349° |
| 2026-05-07 15:39 | 47.16139 | 11.26113 | 34006 ft | 452 kts | 349° |
| 2026-05-07 15:39 | 47.21385 | 11.25330 | 33997 ft | 452 kts | 349° |
| 2026-05-07 15:40 | 47.27637 | 11.24382 | 34020 ft | 452 kts | 349° |
| 2026-05-07 15:40 | 47.33926 | 11.23848 | 34015 ft | 456 kts | 0° |
| 2026-05-07 15:41 | 47.40217 | 11.24786 | 34015 ft | 458 kts | 2° |
| 2026-05-07 15:41 | 47.46550 | 11.25751 | 34020 ft | 457 kts | 2° |
| 2026-05-07 15:42 | 47.52881 | 11.26715 | 34023 ft | 457 kts | 2° |
| 2026-05-07 15:42 | 47.59211 | 11.27676 | 34019 ft | 457 kts | 2° |
| 2026-05-07 15:43 | 47.65548 | 11.28643 | 34014 ft | 458 kts | 2° |
| 2026-05-07 15:43 | 47.71896 | 11.29611 | 34028 ft | 458 kts | 2° |
| 2026-05-07 15:44 | 47.78237 | 11.30582 | 34026 ft | 458 kts | 2° |
| 2026-05-07 15:44 | 47.81411 | 11.31072 | 33811 ft | 459 kts | 2° |
| 2026-05-07 15:44 | 47.84613 | 11.31564 | 32557 ft | 466 kts | 3° |
| 2026-05-07 15:45 | 47.87859 | 11.32062 | 31446 ft | 470 kts | 4° |
| 2026-05-07 15:45 | 47.91089 | 11.32562 | 30670 ft | 463 kts | 4° |
| 2026-05-07 15:45 | 47.94273 | 11.33060 | 29919 ft | 457 kts | 4° |
| 2026-05-07 15:45 | 47.97414 | 11.33552 | 29131 ft | 451 kts | 4° |
| 2026-05-07 15:46 | 48.03478 | 11.34500 | 28260 ft | 416 kts | 4° |
| 2026-05-07 15:46 | 48.06264 | 11.34938 | 28206 ft | 389 kts | 4° |
| 2026-05-07 15:46 | 48.08854 | 11.35718 | 28081 ft | 383 kts | 17° |
| 2026-05-07 15:47 | 48.11232 | 11.37569 | 27675 ft | 390 kts | 35° |
| 2026-05-07 15:47 | 48.13125 | 11.40492 | 27252 ft | 394 kts | 54° |
| 2026-05-07 15:47 | 48.14325 | 11.44177 | 26772 ft | 397 kts | 72° |
| 2026-05-07 15:47 | 48.14697 | 11.48207 | 26271 ft | 398 kts | 91° |
| 2026-05-07 15:48 | 48.14207 | 11.52322 | 25743 ft | 397 kts | 110° |
| 2026-05-07 15:48 | 48.12921 | 11.55939 | 25242 ft | 393 kts | 129° |
| 2026-05-07 15:48 | 48.11003 | 11.58729 | 24762 ft | 388 kts | 148° |
| 2026-05-07 15:48 | 48.08625 | 11.60514 | 24281 ft | 380 kts | 166° |
| 2026-05-07 15:49 | 48.06049 | 11.61151 | 23793 ft | 372 kts | 182° |
| 2026-05-07 15:49 | 48.03465 | 11.61068 | 23273 ft | 369 kts | 186° |
| 2026-05-07 15:49 | 48.00908 | 11.60767 | 22753 ft | 366 kts | 189° |
| 2026-05-07 15:49 | 47.98388 | 11.60351 | 22265 ft | 364 kts | 190° |
| 2026-05-07 15:50 | 47.95883 | 11.59902 | 21783 ft | 361 kts | 190° |
| 2026-05-07 15:50 | 47.93397 | 11.59392 | 21305 ft | 357 kts | 196° |
| 2026-05-07 15:50 | 47.91104 | 11.58106 | 20839 ft | 350 kts | 212° |
| 2026-05-07 15:50 | 47.89161 | 11.55990 | 20380 ft | 343 kts | 227° |
| 2026-05-07 15:51 | 47.87678 | 11.53258 | 19928 ft | 338 kts | 241° |
| 2026-05-07 15:51 | 47.86737 | 11.50090 | 19488 ft | 334 kts | 256° |
| 2026-05-07 15:51 | 47.86390 | 11.46697 | 19042 ft | 331 kts | 270° |
| 2026-05-07 15:51 | 47.86646 | 11.43317 | 18598 ft | 329 kts | 284° |
| 2026-05-07 15:52 | 47.87479 | 11.40160 | 18168 ft | 328 kts | 299° |
| 2026-05-07 15:52 | 47.88812 | 11.37454 | 17685 ft | 329 kts | 313° |
| 2026-05-07 15:52 | 47.90591 | 11.35311 | 17204 ft | 332 kts | 327° |
| 2026-05-07 15:52 | 47.92710 | 11.33923 | 16729 ft | 335 kts | 342° |
| 2026-05-07 15:53 | 47.95023 | 11.33404 | 16266 ft | 339 kts | 355° |
| 2026-05-07 15:53 | 47.97389 | 11.33461 | 15802 ft | 340 kts | 0° |
| 2026-05-07 15:53 | 47.99747 | 11.33737 | 15341 ft | 341 kts | 2° |
| 2026-05-07 15:53 | 48.02068 | 11.34113 | 15028 ft | 337 kts | 3° |
| 2026-05-07 15:54 | 48.04353 | 11.34707 | 15020 ft | 331 kts | 12° |
| 2026-05-07 15:54 | 48.06532 | 11.35818 | 15028 ft | 333 kts | 21° |
| 2026-05-07 15:54 | 48.08440 | 11.37785 | 15028 ft | 337 kts | 45° |
| 2026-05-07 15:54 | 48.09885 | 11.40597 | 15037 ft | 351 kts | 53° |
| 2026-05-07 15:55 | 48.11288 | 11.43684 | 15032 ft | 364 kts | 54° |
| 2026-05-07 15:55 | 48.12710 | 11.46848 | 15030 ft | 367 kts | 54° |
| 2026-05-07 15:55 | 48.14137 | 11.50028 | 15030 ft | 368 kts | 54° |
| 2026-05-07 15:55 | 48.15564 | 11.53212 | 14971 ft | 366 kts | 54° |
| 2026-05-07 15:56 | 48.16882 | 11.56156 | 14650 ft | 365 kts | 54° |
| 2026-05-07 15:56 | 48.18295 | 11.59309 | 14359 ft | 365 kts | 54° |
| 2026-05-07 15:56 | 48.19712 | 11.62467 | 14052 ft | 364 kts | 54° |
| 2026-05-07 15:56 | 48.21129 | 11.65617 | 13778 ft | 364 kts | 54° |
| 2026-05-07 15:57 | 48.22544 | 11.68757 | 13465 ft | 362 kts | 54° |
| 2026-05-07 15:57 | 48.23948 | 11.71875 | 13133 ft | 360 kts | 54° |
| 2026-05-07 15:57 | 48.25351 | 11.74989 | 12816 ft | 358 kts | 54° |
| 2026-05-07 15:57 | 48.26743 | 11.78079 | 12500 ft | 357 kts | 54° |
| 2026-05-07 15:58 | 48.28133 | 11.81162 | 12188 ft | 355 kts | 54° |
| 2026-05-07 15:58 | 48.29511 | 11.84220 | 11868 ft | 353 kts | 54° |
| 2026-05-07 15:58 | 48.30891 | 11.87281 | 11575 ft | 351 kts | 54° |
| 2026-05-07 15:58 | 48.32258 | 11.90312 | 11270 ft | 349 kts | 54° |
| 2026-05-07 15:59 | 48.33616 | 11.93321 | 11041 ft | 347 kts | 54° |
| 2026-05-07 15:59 | 48.34957 | 11.96290 | 11021 ft | 347 kts | 54° |
| 2026-05-07 15:59 | 48.36315 | 11.99297 | 11029 ft | 347 kts | 54° |
| 2026-05-07 15:59 | 48.37667 | 12.02295 | 10875 ft | 348 kts | 54° |
| 2026-05-07 16:00 | 48.39021 | 12.05296 | 10500 ft | 345 kts | 54° |
| 2026-05-07 16:00 | 48.40360 | 12.08260 | 10132 ft | 340 kts | 54° |
| 2026-05-07 16:00 | 48.41666 | 12.11155 | 10030 ft | 326 kts | 54° |
| 2026-05-07 16:00 | 48.42907 | 12.13915 | 10025 ft | 311 kts | 54° |
| 2026-05-07 16:01 | 48.44104 | 12.16584 | 10034 ft | 306 kts | 54° |
| 2026-05-07 16:01 | 48.45298 | 12.19266 | 9639 ft | 310 kts | 54° |
| 2026-05-07 16:01 | 48.46492 | 12.21951 | 9233 ft | 308 kts | 54° |
| 2026-05-07 16:01 | 48.47676 | 12.24623 | 8842 ft | 306 kts | 54° |
| 2026-05-07 16:02 | 48.48856 | 12.27292 | 8456 ft | 305 kts | 54° |
| 2026-05-07 16:02 | 48.49815 | 12.30141 | 8077 ft | 306 kts | 75° |
| 2026-05-07 16:02 | 48.49936 | 12.33326 | 7683 ft | 305 kts | 101° |
| 2026-05-07 16:02 | 48.49161 | 12.36247 | 7301 ft | 299 kts | 128° |
| 2026-05-07 16:03 | 48.47669 | 12.38322 | 6929 ft | 290 kts | 154° |
| 2026-05-07 16:03 | 48.45809 | 12.39155 | 6566 ft | 279 kts | 181° |
| 2026-05-07 16:03 | 48.43959 | 12.38637 | 6184 ft | 268 kts | 209° |
| 2026-05-07 16:03 | 48.42529 | 12.36949 | 5803 ft | 260 kts | 231° |
| 2026-05-07 16:04 | 48.41381 | 12.34848 | 5418 ft | 259 kts | 234° |
| 2026-05-07 16:04 | 48.40270 | 12.32707 | 5058 ft | 259 kts | 234° |
| 2026-05-07 16:04 | 48.39192 | 12.30549 | 5000 ft | 257 kts | 241° |
| 2026-05-07 16:04 | 48.38591 | 12.28053 | 5005 ft | 254 kts | 262° |
| 2026-05-07 16:05 | 48.38323 | 12.25413 | 5005 ft | 256 kts | 263° |
| 2026-05-07 16:05 | 48.38060 | 12.22837 | 5000 ft | 240 kts | 261° |
| 2026-05-07 16:05 | 48.37594 | 12.20463 | 5006 ft | 241 kts | 256° |
| 2026-05-07 16:05 | 48.37271 | 12.17954 | 5008 ft | 245 kts | 263° |
| 2026-05-07 16:06 | 48.37080 | 12.15413 | 5009 ft | 246 kts | 265° |
| 2026-05-07 16:06 | 48.36901 | 12.12848 | 5007 ft | 246 kts | 265° |
| 2026-05-07 16:06 | 48.36715 | 12.10291 | 5008 ft | 245 kts | 265° |
| 2026-05-07 16:06 | 48.36532 | 12.07830 | 4980 ft | 228 kts | 265° |
| 2026-05-07 16:07 | 48.36359 | 12.05496 | 4783 ft | 223 kts | 265° |
| 2026-05-07 16:07 | 48.36189 | 12.03191 | 4503 ft | 220 kts | 265° |
| 2026-05-07 16:07 | 48.36021 | 12.00939 | 4206 ft | 219 kts | 264° |
| 2026-05-07 16:07 | 48.35852 | 11.98666 | 3919 ft | 217 kts | 265° |
| 2026-05-07 16:08 | 48.35687 | 11.96468 | 3622 ft | 206 kts | 265° |
| 2026-05-07 16:08 | 48.35531 | 11.94382 | 3359 ft | 197 kts | 265° |
| 2026-05-07 16:08 | 48.35382 | 11.92405 | 3131 ft | 183 kts | 265° |
| 2026-05-07 16:08 | 48.35244 | 11.90573 | 2862 ft | 170 kts | 265° |
| 2026-05-07 16:09 | 48.35115 | 11.88868 | 2621 ft | 158 kts | 263° |
| 2026-05-07 16:09 | 48.34997 | 11.87312 | 2442 ft | 145 kts | 266° |
| 2026-05-07 16:09 | 48.34885 | 11.85833 | 2233 ft | 142 kts | 264° |
| 2026-05-07 16:09 | 48.34775 | 11.84381 | 2043 ft | 137 kts | 268° |
| 2026-05-07 16:10 | 48.34668 | 11.82962 | 1853 ft | 138 kts | 269° |
| 2026-05-07 16:10 | 48.34559 | 11.81518 | 1665 ft | 141 kts | 266° |
| 2026-05-07 16:10 | 48.34449 | 11.80110 | 1515 ft | 139 kts | 267° |
| 2026-05-07 16:10 | 48.34339 | 11.78773 | 1485 ft | 123 kts | 266° |
| 2026-05-07 16:11 | 48.34283 | 11.77788 | 1485 ft | 61 kts | 263° |
| 2026-05-07 16:11 | 48.34266 | 11.77562 | 1479 ft | 3 kts | 263° |
| 2026-05-07 16:11 | 48.34258 | 11.77416 | 1477 ft | 23 kts | 269° |
| 2026-05-07 16:11 | 48.34291 | 11.77175 | 1485 ft | 24 kts | 285° |
| 2026-05-07 16:12 | 48.34318 | 11.77060 | 1483 ft | 7 kts | 291° |
| 2026-05-07 16:12 | 48.34319 | 11.77056 | 1483 ft | 3 kts | 291° |
| 2026-05-07 16:12 | 48.34336 | 11.76993 | 1478 ft | 10 kts | 292° |
| 2026-05-07 16:12 | 48.34365 | 11.76888 | 1475 ft | 13 kts | 293° |
| 2026-05-07 16:13 | 48.34411 | 11.76742 | 1480 ft | 16 kts | 310° |
| 2026-05-07 16:13 | 48.34517 | 11.76694 | 1485 ft | 17 kts | 354° |
| 2026-05-07 16:13 | 48.34578 | 11.76807 | 1485 ft | 17 kts | 85° |
| 2026-05-07 16:13 | 48.34589 | 11.76975 | 1482 ft | 15 kts | 84° |
| 2026-05-07 16:14 | 48.34599 | 11.77126 | 1485 ft | 14 kts | 84° |
| 2026-05-07 16:14 | 48.34610 | 11.77271 | 1475 ft | 19 kts | 83° |
| 2026-05-07 16:14 | 48.34634 | 11.77535 | 1483 ft | 28 kts | 81° |
| 2026-05-07 16:14 | 48.34660 | 11.77816 | 1485 ft | 18 kts | 87° |
| 2026-05-07 16:15 | 48.34661 | 11.77852 | 1485 ft | 1 kts | 87° |
| 2026-05-07 16:15 | 48.34662 | 11.77886 | 1485 ft | 8 kts | 87° |
| 2026-05-07 16:15 | 48.34667 | 11.78024 | 1479 ft | 17 kts | 84° |
| 2026-05-07 16:15 | 48.34684 | 11.78209 | 1474 ft | 18 kts | 82° |
| 2026-05-07 16:16 | 48.34703 | 11.78405 | 1482 ft | 20 kts | 82° |
| 2026-05-07 16:16 | 48.34722 | 11.78616 | 1479 ft | 21 kts | 83° |
| 2026-05-07 16:16 | 48.34740 | 11.78844 | 1478 ft | 23 kts | 83° |
| 2026-05-07 16:16 | 48.34754 | 11.79088 | 1481 ft | 24 kts | 84° |
| 2026-05-07 16:17 | 48.34774 | 11.79346 | 1478 ft | 26 kts | 83° |
| 2026-05-07 16:17 | 48.34807 | 11.79557 | 1480 ft | 6 kts | 31° |
| 2026-05-07 16:17 | 48.34875 | 11.79556 | 1473 ft | 15 kts | 354° |
| 2026-05-07 16:17 | 48.34901 | 11.79551 | 1481 ft | 0 kts | 353° |
| 2026-05-07 16:18 | 48.34902 | 11.79551 | 1482 ft | 1 kts | 353° |
| 2026-05-07 16:18 | 48.34945 | 11.79544 | 1481 ft | 8 kts | 353° |
| 2026-05-07 16:18 | 48.35018 | 11.79531 | 1485 ft | 15 kts | 353° |
| 2026-05-07 16:19 | 48.35097 | 11.79664 | 1485 ft | 24 kts | 81° |
| 2026-05-07 16:19 | 48.35119 | 11.79930 | 1485 ft | 28 kts | 83° |
| 2026-05-07 16:19 | 48.35153 | 11.80191 | 1473 ft | 14 kts | 44° |
| 2026-05-07 16:19 | 48.35200 | 11.80186 | 1485 ft | 14 kts | 353° |
| 2026-05-07 16:20 | 48.35370 | 11.80158 | 1481 ft | 27 kts | 351° |
| 2026-05-07 16:20 | 48.35428 | 11.80090 | 1483 ft | 9 kts | 268° |
| 2026-05-07 16:20 | 48.35424 | 11.80035 | 1485 ft | 1 kts | 263° |
| 2026-05-07 16:20 | 48.35423 | 11.80024 | 1481 ft | 2 kts | 263° |
| 2026-05-07 16:21 | 48.35423 | 11.80019 | 1482 ft | 0 kts | 263° |